• Join FlightAware (Why Join?)
  • Login
  • US Flag 
09:16AM EDT


 

Airport Tracker/Info


-or-


 

Live Flight TrackerFlight Track Log ✈ DAL6032 ✈ 27-Apr-2013 ✈ KGRR - KDTW

Flight Track Log - Related Links

Times and Time Zones

All times are in EDT time to prevent confusion due to time zone crossing. See the DAL6032 flight status page for this flight to view local times or setup timezone preferences in your user account.

Time Position Orientation Groundspeed Altitude Reporting Facility
EDT Latitude Longitude Course Direction KTS MPH feet Rate Location/Type
10:23AM 42.8811 -85.5664 62° Northeast 172 198 2,500  Level Chicago Center
10:24AM 42.9214 -85.5489 18° North 197 227 4,900 2,460 Climbing Chicago Center
10:25AM 42.9403 -85.4547 75° East 213 245 7,600 2,460 Climbing Chicago Center
10:26AM 42.8756 -85.2259 59° Northeast  Level FlightAware Approximate
10:26AM 42.9600 -85.3650 73° East 239 275 10,100  Level Chicago Center
10:27AM 42.9145 -85.1381 59° Northeast  Level FlightAware Approximate
10:27AM 42.9822 -85.2686 72° East 262 302 10,900  Level Chicago Center
10:28AM 42.9491 -85.0470 63° Northeast  Level FlightAware Approximate
10:28AM 43.0056 -85.1647 73° East 283 326 10,900  Level Chicago Center
10:29AM 42.9828 -84.9587 62° Northeast  Level FlightAware Approximate
10:29AM 43.0283 -85.0633 73° East 281 323 10,900  Level Chicago Center
10:30AM 43.0508 -84.9611 73° East 282 325 10,900  Level Chicago Center
10:31AM 43.0744 -84.8567 73° East 287 330 10,900  Level Chicago Center
10:32AM 43.1039 -84.7292 72° East 294 338 10,900  Level Chicago Center
10:33AM 43.1161 -84.6167 81° East 298 343 10,900  Level Chicago Center
10:34AM 43.1236 -84.5089 85° East 290 334 10,900  Level Chicago Center
10:35AM 43.1053 -84.4050 104° East 283 326 10,900  Level Chicago Center
10:37AM 43.0864 -84.3061 105° East 273 314 10,900  Level Chicago Center
10:38AM 43.0458 -84.2183 122° Southeast 276 318 10,900  Level Chicago Center
10:39AM 43.0072 -84.1278 120° Southeast 273 314 10,900  Level Chicago Center
10:40AM 42.9492 -84.0042 123° Southeast 303 349 10,900  Level Cleveland Center
10:40AM 42.9144 -83.9144 118° Southeast 343 395 11,000 120 Climbing Cleveland Center